Time;durP1;ratioP1;P1;durP2;ratioP2;P2;SDS_P1;SDS_P2;PMS_P1;PMS_P2;Temp;Humidity;BMP_temperature;BMP_pressure;BME280_temperature;BME280_humidity;BME280_pressure;Samples;Min_cycle;Max_cycle;Signal;HPM_P1;HPM_P2
2022/06/08 00:00:17;;;;;;;6.35;4.20;;;;;;;20.13;59.66;99215.25;3140163;28;20505;-71
2022/06/08 00:01:51;;;;;;;11.45;5.10;;;;;;;20.20;60.16;99227.75;3140265;28;20121;-72
2022/06/08 00:03:27;;;;;;;8.68;5.00;;;;;;;20.20;60.03;99224.25;3140309;28;20113;-70
2022/06/08 00:05:00;;;;;;;12.63;5.13;;;;;;;20.16;60.51;99225.53;3140136;28;20505;-72
2022/06/08 00:06:32;;;;;;;;;;;;;;;20.07;61.10;99221.94;3140477;28;20059;-71
2022/06/08 00:08:05;;;;;;;8.77;4.75;;;;;;;19.86;61.29;99201.00;3140097;28;19939;-70
2022/06/08 00:09:35;;;;;;;8.20;5.00;;;;;;;19.94;61.46;99219.63;3140740;28;20114;-73
2022/06/08 00:11:08;;;;;;;10.90;5.10;;;;;;;19.94;61.91;99219.63;3136476;28;20516;-72
2022/06/08 00:12:40;;;;;;;10.95;5.00;;;;;;;19.72;62.05;99180.31;3140028;28;20056;-71
2022/06/08 00:14:13;;;;;;;9.00;4.72;;;;;;;19.84;62.53;99210.03;3143608;28;20055;-71
2022/06/08 00:15:45;;;;;;;8.98;4.40;;;;;;;19.83;62.34;99203.94;3142734;28;20048;-71
2022/06/08 00:17:18;;;;;;;7.40;5.53;;;;;;;19.80;62.55;99209.50;3140015;28;20056;-71
2022/06/08 00:18:50;;;;;;;7.43;4.30;;;;;;;19.81;62.55;99202.41;3140253;28;20098;-71
2022/06/08 00:20:23;;;;;;;8.10;5.15;;;;;;;19.79;62.63;99205.19;3140293;28;20125;-72
2022/06/08 00:21:55;;;;;;;;;;;;;;;19.76;62.67;99206.31;3140731;28;20052;-72
2022/06/08 00:23:26;;;;;;;6.88;4.50;;;;;;;19.74;62.71;99205.63;3139934;28;19924;-73
2022/06/08 00:24:59;;;;;;;9.05;4.70;;;;;;;19.75;62.71;99201.16;3140117;28;20506;-72
2022/06/08 00:26:31;;;;;;;7.15;4.57;;;;;;;19.72;62.93;99201.44;3140108;28;20052;-73
2022/06/08 00:28:02;;;;;;;11.68;4.88;;;;;;;19.69;63.05;99197.28;3140381;28;20155;-73
2022/06/08 00:29:34;;;;;;;9.63;5.32;;;;;;;19.70;62.93;99198.09;3140037;28;20143;-72
2022/06/08 00:31:07;;;;;;;9.85;4.80;;;;;;;19.68;63.02;99198.25;3140095;28;20284;-72
2022/06/08 00:32:39;;;;;;;10.77;5.13;;;;;;;19.64;63.10;99193.34;3140369;28;20063;-72
2022/06/08 00:34:11;;;;;;;8.25;5.68;;;;;;;19.65;63.10;99201.19;3140055;28;20322;-72
2022/06/08 00:35:44;;;;;;;10.27;5.43;;;;;;;19.62;63.23;99195.31;3140274;28;20063;-72
2022/06/08 00:37:16;;;;;;;;;;;;;;;19.58;63.19;99201.84;3140466;28;20536;-72
2022/06/08 00:38:46;;;;;;;6.95;4.97;;;;;;;19.47;63.21;99200.22;3139825;28;20065;-73
2022/06/08 00:40:21;;;;;;;8.82;5.30;;;;;;;19.46;63.92;99211.72;3139913;28;20501;-72
2022/06/08 00:41:56;;;;;;;8.05;5.32;;;;;;;19.43;63.96;99206.72;3139998;28;20059;-72
2022/06/08 00:43:28;;;;;;;10.10;5.50;;;;;;;19.30;64.14;99199.94;3140178;28;20063;-73
2022/06/08 00:45:03;;;;;;;7.65;5.57;;;;;;;19.30;64.61;99197.28;3140181;28;20048;-73
2022/06/08 00:46:35;;;;;;;11.73;5.30;;;;;;;19.28;64.43;99198.41;3139933;28;20048;-72
2022/06/08 00:48:08;;;;;;;8.80;5.47;;;;;;;19.27;64.69;99197.56;3133464;28;20520;-72
2022/06/08 00:49:43;;;;;;;12.25;6.13;;;;;;;19.26;64.68;99201.19;3140075;28;20067;-71
2022/06/08 00:51:16;;;;;;;8.35;5.40;;;;;;;19.23;64.74;99198.84;3139872;28;20056;-72
2022/06/08 00:52:49;;;;;;;7.65;5.55;;;;;;;19.20;64.95;99193.00;3139985;28;20526;-70
2022/06/08 00:54:27;;;;;;;10.88;6.10;;;;;;;19.18;64.94;99195.78;3139780;28;20053;-70
2022/06/08 00:56:01;;;;;;;9.50;5.63;;;;;;;19.06;64.99;99181.88;3139851;28;20082;-69
2022/06/08 00:57:40;;;;;;;7.38;5.68;;;;;;;19.15;65.22;99206.59;3140103;28;20048;-69
2022/06/08 00:59:13;;;;;;;8.55;5.65;;;;;;;19.12;65.32;99195.50;3138288;28;20056;-73
2022/06/08 01:00:46;;;;;;;10.00;5.90;;;;;;;19.11;65.18;99205.22;3139842;28;20048;-71
2022/06/08 01:02:18;;;;;;;7.00;5.57;;;;;;;18.99;65.38;99187.84;3139970;28;20048;-71
2022/06/08 01:03:50;;;;;;;9.90;6.27;;;;;;;19.10;65.55;99208.81;3139699;28;20052;-71
2022/06/08 01:05:28;;;;;;;7.85;5.47;;;;;;;19.09;65.42;99209.81;3135119;28;20277;-71
2022/06/08 01:07:01;;;;;;;8.70;5.35;;;;;;;19.09;65.55;99207.16;3139664;28;20041;-71
2022/06/08 01:08:38;;;;;;;13.82;5.43;;;;;;;19.09;65.52;99209.81;3139910;28;20049;-71
2022/06/08 01:10:12;;;;;;;8.35;5.70;;;;;;;19.04;65.67;99202.28;3141595;28;20060;-71
2022/06/08 01:11:47;;;;;;;8.85;5.40;;;;;;;19.03;65.79;99207.72;3143897;28;20044;-71
2022/06/08 01:13:20;;;;;;;9.75;5.72;;;;;;;19.01;65.76;99207.00;3142157;28;20044;-70
2022/06/08 01:14:52;;;;;;;7.72;6.22;;;;;;;18.97;66.08;99205.63;3142212;28;20855;-70
2022/06/08 01:16:25;;;;;;;13.18;5.95;;;;;;;18.95;66.04;99202.28;3142354;28;20109;-70
2022/06/08 01:17:57;;;;;;;15.98;6.07;;;;;;;18.91;66.29;99208.81;3142171;28;20068;-70
2022/06/08 01:19:30;;;;;;;9.20;5.90;;;;;;;18.90;66.35;99210.63;3142475;28;20053;-71
2022/06/08 01:21:35;;;;;;;9.63;5.55;;;;;;;18.89;66.39;99203.66;3142135;28;20056;-71
2022/06/08 01:23:09;;;;;;;8.20;5.70;;;;;;;18.86;66.45;99196.84;3124352;28;20053;-70
2022/06/08 01:24:41;;;;;;;;;;;;;;;18.83;66.47;99205.03;3139821;28;20060;-71
2022/06/08 01:26:20;;;;;;;8.13;5.25;;;;;;;18.68;66.34;99171.25;3142094;28;19924;-71
2022/06/08 01:28:00;;;;;;;7.43;5.13;;;;;;;18.81;66.46;99199.09;3142853;28;20053;-72
2022/06/08 01:29:37;;;;;;;7.70;5.07;;;;;;;18.82;66.51;99202.56;3142594;28;20130;-72
2022/06/08 01:31:18;;;;;;;10.05;5.95;;;;;;;18.82;66.41;99202.56;3142193;28;20052;-72
2022/06/08 01:33:28;;;;;;;6.68;5.10;;;;;;;18.76;66.68;99211.84;3137279;28;20041;-72
2022/06/08 01:35:15;;;;;;;8.77;5.43;;;;;;;18.69;67.02;99207.19;3142309;28;20546;-72
2022/06/08 01:37:01;;;;;;;8.60;4.88;;;;;;;18.65;66.78;99210.09;3138252;28;20049;-72
2022/06/08 01:38:43;;;;;;;7.22;4.75;;;;;;;18.63;66.91;99219.13;3142015;28;20056;-72
2022/06/08 01:40:51;;;;;;;6.50;4.38;;;;;;;18.59;66.73;99218.56;3141892;28;20052;-72
2022/06/08 01:42:40;;;;;;;4.72;4.05;;;;;;;18.54;66.78;99219.94;3129029;28;20044;-72
2022/06/08 01:44:30;;;;;;;5.80;4.47;;;;;;;18.49;66.98;99216.88;3137410;28;20053;-72
2022/06/08 01:46:17;;;;;;;8.45;4.38;;;;;;;18.44;66.77;99212.00;3138691;28;20153;-72
2022/06/08 01:48:26;;;;;;;6.72;4.10;;;;;;;18.39;67.12;99212.38;3142087;28;20202;-72
2022/06/08 01:50:03;;;;;;;9.10;3.92;;;;;;;18.38;67.07;99216.00;3124545;28;20055;-71
2022/06/08 01:51:47;;;;;;;13.32;4.28;;;;;;;18.37;67.00;99206.44;3142038;28;20343;-71
2022/06/08 01:53:32;;;;;;;5.07;3.95;;;;;;;18.39;66.89;99207.13;3141974;28;20059;-71
2022/06/08 01:55:16;;;;;;;5.70;3.75;;;;;;;18.39;67.01;99206.28;3141833;28;20505;-71
2022/06/08 01:56:56;;;;;;;9.82;4.20;;;;;;;18.40;66.88;99206.16;3141871;28;20044;-71
2022/06/08 01:58:40;;;;;;;8.05;3.72;;;;;;;18.42;66.86;99206.00;3141736;28;20052;-71
2022/06/08 02:00:16;;;;;;;4.88;4.05;;;;;;;18.42;66.85;99198.94;3141529;28;20052;-71
2022/06/08 02:01:54;;;;;;;7.53;4.40;;;;;;;18.41;66.54;99197.28;3141775;28;20040;-70
2022/06/08 02:03:29;;;;;;;8.88;6.32;;;;;;;18.46;66.70;99204.78;3141670;28;20118;-71
2022/06/08 02:05:12;;;;;;;11.30;5.38;;;;;;;18.48;66.62;99204.66;3141411;28;20063;-70
2022/06/08 02:06:50;;;;;;;5.53;4.38;;;;;;;18.48;66.67;99204.66;3141684;28;20045;-70
2022/06/08 02:08:25;;;;;;;7.50;6.00;;;;;;;18.44;66.72;99198.81;3139642;28;20530;-71
2022/06/08 02:10:03;;;;;;;7.85;6.32;;;;;;;18.49;66.53;99207.16;3141706;28;20057;-71
2022/06/08 02:11:43;;;;;;;8.50;6.78;;;;;;;18.44;66.42;99192.72;3139116;28;20059;-70
2022/06/08 02:13:20;;;;;;;8.20;5.95;;;;;;;18.47;66.63;99206.44;3141542;28;20079;-70
2022/06/08 02:14:58;;;;;;;12.45;5.95;;;;;;;18.49;66.75;99203.69;3141675;28;20426;-70
2022/06/08 02:16:36;;;;;;;16.13;8.35;;;;;;;18.48;66.96;99199.38;3141693;28;20608;-70
2022/06/08 02:18:14;;;;;;;22.13;12.95;;;;;;;18.46;66.86;99201.31;3138733;28;20781;-70
2022/06/08 02:19:49;;;;;;;17.20;11.18;;;;;;;18.44;67.02;99200.63;3141377;28;20052;-70
2022/06/08 02:21:29;;;;;;;25.83;17.10;;;;;;;18.45;67.03;99207.56;3141072;28;20056;-70
2022/06/08 02:23:09;;;;;;;22.85;15.02;;;;;;;18.44;67.05;99204.09;3141125;28;20052;-70
2022/06/08 02:24:46;;;;;;;25.92;17.77;;;;;;;18.41;66.96;99199.91;3141486;28;20052;-70
2022/06/08 02:26:22;;;;;;;27.92;18.40;;;;;;;18.39;67.10;99196.56;3141309;28;20055;-70
2022/06/08 02:28:01;;;;;;;25.65;19.67;;;;;;;18.41;67.17;99199.91;3141642;28;20048;-70
2022/06/08 02:29:38;;;;;;;26.42;18.95;;;;;;;18.40;67.23;99203.53;3141511;28;20067;-69
2022/06/08 02:31:16;;;;;;;35.58;18.10;;;;;;;18.38;67.45;99210.72;3141469;28;20052;-71
2022/06/08 02:34:42;;;;;;;23.50;15.98;;;;;;;18.35;67.47;99200.44;3141481;28;20561;-70
2022/06/08 02:36:17;;;;;;;25.15;16.50;;;;;;;18.32;67.38;99206.00;3141242;28;20474;-70
2022/06/08 02:37:54;;;;;;;22.13;15.25;;;;;;;18.36;67.34;99203.91;3141374;28;20090;-70
2022/06/08 02:39:31;;;;;;;19.13;13.27;;;;;;;18.34;67.27;99205.88;3141475;28;20457;-70
2022/06/08 02:41:08;;;;;;;14.65;11.52;;;;;;;18.35;67.15;99211.00;3141337;28;20048;-71
2022/06/08 02:42:43;;;;;;;16.60;12.00;;;;;;;18.35;67.03;99205.72;3141324;28;20087;-70
2022/06/08 02:44:19;;;;;;;15.93;11.77;;;;;;;18.34;67.12;99204.06;3141308;28;20134;-69
2022/06/08 02:45:59;;;;;;;15.88;11.00;;;;;;;18.29;67.13;99203.63;3141412;28;20148;-70
2022/06/08 02:47:35;;;;;;;18.50;10.75;;;;;;;18.31;66.80;99209.59;3141010;28;20044;-70
2022/06/08 02:49:07;;;;;;;13.75;9.60;;;;;;;18.33;66.82;99210.28;3141111;28;20570;-69
2022/06/08 02:50:49;;;;;;;18.20;10.07;;;;;;;18.34;66.63;99213.78;3141184;28;20577;-71
2022/06/08 02:52:26;;;;;;;13.23;9.73;;;;;;;18.36;66.64;99211.81;3139462;28;20060;-70
2022/06/08 02:54:02;;;;;;;14.50;11.05;;;;;;;18.35;66.75;99211.00;3141015;28;20065;-70
2022/06/08 02:55:44;;;;;;;17.40;10.32;;;;;;;18.33;66.86;99207.66;3140822;28;20110;-70
2022/06/08 02:57:26;;;;;;;15.05;9.27;;;;;;;18.34;66.65;99208.50;3141105;28;20087;-70
2022/06/08 02:59:02;;;;;;;13.45;8.82;;;;;;;18.26;66.46;99198.63;3140812;28;20122;-70
2022/06/08 03:00:42;;;;;;;16.88;9.18;;;;;;;18.31;66.71;99208.75;3140976;28;20557;-70
2022/06/08 03:02:18;;;;;;;12.23;7.10;;;;;;;18.29;66.50;99211.53;3140815;28;20571;-71
2022/06/08 03:03:53;;;;;;;9.95;7.63;;;;;;;18.31;66.31;99211.38;3143920;28;20060;-71
2022/06/08 03:05:29;;;;;;;12.77;7.07;;;;;;;18.30;66.09;99212.34;3139206;28;20113;-70
2022/06/08 03:07:06;;;;;;;13.23;7.25;;;;;;;18.27;66.15;99213.44;3134790;28;20102;-70
2022/06/08 03:08:43;;;;;;;15.55;7.20;;;;;;;18.28;66.14;99207.22;3134679;28;20060;-70
2022/06/08 03:10:18;;;;;;;17.20;6.30;;;;;;;18.27;66.19;99208.19;3132251;28;20063;-70
2022/06/08 03:11:54;;;;;;;10.45;6.43;;;;;;;18.28;66.23;99209.88;3140474;28;20452;-70
2022/06/08 03:13:29;;;;;;;11.77;7.03;;;;;;;18.26;65.96;99210.97;3140977;28;20463;-70
2022/06/08 03:15:01;;;;;;;9.57;6.30;;;;;;;18.21;65.93;99213.97;3140905;28;20051;-70
2022/06/08 03:16:39;;;;;;;10.70;6.43;;;;;;;18.18;66.23;99212.44;3141009;28;20048;-70
2022/06/08 03:18:11;;;;;;;9.90;6.63;;;;;;;18.19;66.32;99215.94;3141166;28;20076;-70
2022/06/08 03:19:43;;;;;;;11.88;6.72;;;;;;;18.20;66.13;99207.06;3140963;28;20052;-70
2022/06/08 03:21:15;;;;;;;12.38;5.97;;;;;;;18.22;65.97;99204.28;3140890;28;20080;-71
2022/06/08 03:22:47;;;;;;;15.90;6.30;;;;;;;18.23;65.97;99206.78;3140847;28;20052;-70
2022/06/08 03:24:18;;;;;;;11.35;5.30;;;;;;;18.23;65.91;99201.53;3140658;28;20060;-70
2022/06/08 03:25:51;;;;;;;12.65;5.57;;;;;;;18.24;66.06;99211.09;3140760;28;20444;-70
2022/06/08 03:27:23;;;;;;;11.43;5.28;;;;;;;18.23;65.71;99206.78;3140938;28;20052;-70
2022/06/08 03:28:55;;;;;;;8.50;5.05;;;;;;;18.26;65.61;99211.78;3140617;28;20044;-70
2022/06/08 03:30:28;;;;;;;9.23;5.30;;;;;;;18.27;65.63;99212.63;3140614;28;20061;-70
2022/06/08 03:32:01;;;;;;;9.50;5.00;;;;;;;18.29;65.33;99211.53;3134334;28;20059;-70
2022/06/08 03:33:33;;;;;;;;;;;;;;;18.28;65.23;99209.88;3141742;28;20212;-70
2022/06/08 03:35:06;;;;;;;11.80;5.60;;;;;;;18.19;65.63;99210.66;3138107;28;19924;-70
2022/06/08 03:36:38;;;;;;;17.58;6.10;;;;;;;18.23;65.77;99216.50;3135735;28;20113;-70
2022/06/08 03:38:10;;;;;;;8.95;5.82;;;;;;;18.22;66.02;99220.09;3135469;28;20063;-71
2022/06/08 03:39:42;;;;;;;13.35;6.03;;;;;;;18.25;65.82;99225.09;3135665;28;20129;-70
2022/06/08 03:41:14;;;;;;;8.52;5.57;;;;;;;18.23;65.77;99209.44;3135429;28;20056;-71
2022/06/08 03:42:46;;;;;;;10.10;6.45;;;;;;;18.31;65.77;99219.28;3135139;28;20048;-71
2022/06/08 03:44:18;;;;;;;11.75;6.82;;;;;;;18.29;66.03;99226.50;3135787;28;20118;-71
2022/06/08 03:45:54;;;;;;;8.57;6.60;;;;;;;18.34;65.76;99222.50;3135603;28;20056;-71
2022/06/08 03:47:31;;;;;;;14.25;7.30;;;;;;;18.39;65.61;99227.38;3135430;28;20052;-70
2022/06/08 03:49:04;;;;;;;10.50;5.78;;;;;;;18.40;65.67;99221.97;3135548;28;20495;-71
2022/06/08 03:50:36;;;;;;;;;;;;;;;18.35;65.53;99218.91;3136180;28;20050;-71
2022/06/08 03:52:12;;;;;;;11.02;6.35;;;;;;;18.37;65.25;99224.88;3135097;28;19932;-71
2022/06/08 03:53:48;;;;;;;13.77;6.20;;;;;;;18.42;65.80;99225.28;3136121;28;20702;-71
2022/06/08 03:55:22;;;;;;;9.40;6.03;;;;;;;18.47;65.28;99222.28;3136536;28;20056;-72
2022/06/08 03:56:56;;;;;;;13.48;6.03;;;;;;;18.51;65.31;99230.75;3136020;28;20044;-72
2022/06/08 03:58:28;;;;;;;11.10;6.00;;;;;;;18.53;64.98;99227.00;3135330;28;20052;-72
2022/06/08 04:00:01;;;;;;;12.30;5.55;;;;;;;18.56;64.96;99232.00;3135777;28;20604;-71
2022/06/08 04:01:34;;;;;;;9.98;5.95;;;;;;;18.57;65.19;99230.22;3135521;28;20048;-72
2022/06/08 04:03:09;;;;;;;6.93;5.85;;;;;;;18.60;65.26;99243.13;3135143;28;20060;-72
2022/06/08 04:04:41;;;;;;;10.20;5.88;;;;;;;18.62;65.06;99239.38;3135286;28;20056;-72
2022/06/08 04:06:13;;;;;;;7.07;5.30;;;;;;;18.67;64.66;99240.81;3135489;28;20714;-72
2022/06/08 04:07:45;;;;;;;10.35;5.82;;;;;;;18.70;64.46;99238.72;3136293;28;20048;-71
2022/06/08 04:09:17;;;;;;;7.60;4.97;;;;;;;18.65;64.30;99231.22;3138399;28;20573;-70
2022/06/08 04:10:49;;;;;;;12.20;5.15;;;;;;;18.73;64.04;99240.25;3137211;28;20071;-69
2022/06/08 04:12:22;;;;;;;12.50;5.78;;;;;;;18.78;63.96;99246.84;3140284;28;20083;-70
2022/06/08 04:13:54;;;;;;;12.05;5.57;;;;;;;18.82;63.78;99242.94;3140316;28;20075;-71
2022/06/08 04:15:45;;;;;;;14.00;5.63;;;;;;;18.88;63.66;99243.38;3140632;28;20098;-70
2022/06/08 04:17:17;;;;;;;8.20;5.05;;;;;;;18.88;63.38;99244.22;3140029;28;20117;-72
2022/06/08 04:18:50;;;;;;;6.05;4.80;;;;;;;18.91;63.33;99237.84;3140203;28;20456;-72
2022/06/08 04:20:21;;;;;;;;;;;;;;;18.92;63.12;99242.13;3140600;28;20459;-71
2022/06/08 04:21:53;;;;;;;9.80;4.85;;;;;;;18.94;62.91;99243.66;3140261;28;19924;-73
2022/06/08 04:23:27;;;;;;;11.30;4.22;;;;;;;18.88;62.81;99231.03;3140202;28;20427;-70
2022/06/08 04:25:00;;;;;;;8.23;4.32;;;;;;;19.03;62.31;99239.38;3140190;28;20488;-69
2022/06/08 04:26:33;;;;;;;10.25;4.07;;;;;;;19.03;62.21;99236.75;3140001;28;20499;-70
2022/06/08 04:28:04;;;;;;;;;;;;;;;18.95;61.30;99237.41;3140729;28;20567;-69
2022/06/08 04:29:36;;;;;;;7.93;4.05;;;;;;;18.92;61.69;99245.59;3140209;28;20027;-71
2022/06/08 04:31:08;;;;;;;7.07;3.40;;;;;;;18.93;61.51;99241.16;3140328;28;20052;-69
2022/06/08 04:32:40;;;;;;;4.68;3.75;;;;;;;18.90;61.61;99242.28;3140135;28;20053;-70
2022/06/08 04:34:14;;;;;;;6.63;3.60;;;;;;;18.84;61.22;99238.38;3140243;28;20537;-71
2022/06/08 04:35:47;;;;;;;5.45;3.72;;;;;;;18.77;61.12;99244.31;3140228;28;20083;-69
2022/06/08 04:37:19;;;;;;;4.93;3.45;;;;;;;18.64;61.22;99228.72;3140168;28;20065;-70
2022/06/08 04:38:51;;;;;;;7.45;4.10;;;;;;;18.72;61.42;99238.56;3139766;28;20052;-69
2022/06/08 04:40:24;;;;;;;5.70;3.83;;;;;;;18.71;61.25;99243.03;3140305;28;20540;-69
2022/06/08 04:41:56;;;;;;;4.00;3.30;;;;;;;18.70;61.15;99236.09;3137319;28;20052;-68
2022/06/08 04:43:29;;;;;;;5.28;3.97;;;;;;;18.72;61.35;99244.69;3140184;28;20060;-70
2022/06/08 04:45:01;;;;;;;5.07;3.53;;;;;;;18.74;61.27;99242.78;3140793;28;20059;-70
2022/06/08 04:46:34;;;;;;;6.60;3.17;;;;;;;18.77;61.41;99244.31;3142757;28;20508;-70
2022/06/08 04:48:08;;;;;;;11.00;3.70;;;;;;;18.77;60.92;99247.78;3142400;28;20040;-71
2022/06/08 04:49:43;;;;;;;7.82;4.13;;;;;;;18.86;61.19;99246.97;3142778;28;20547;-70
2022/06/08 04:51:21;;;;;;;12.85;3.80;;;;;;;18.88;61.09;99249.50;3142619;28;20056;-69
2022/06/08 04:52:54;;;;;;;5.43;3.72;;;;;;;18.91;60.91;99249.22;3142531;28;20048;-68
2022/06/08 04:54:26;;;;;;;11.60;4.72;;;;;;;18.95;60.96;99250.59;3142454;28;20152;-71
2022/06/08 04:55:58;;;;;;;12.10;4.00;;;;;;;18.99;61.10;99245.88;3146184;28;20226;-70
2022/06/08 04:57:33;;;;;;;7.32;3.92;;;;;;;19.04;60.68;99243.69;3142476;28;20117;-70
2022/06/08 04:59:05;;;;;;;8.02;4.85;;;;;;;19.03;60.60;99257.84;3142495;28;20052;-70
2022/06/08 05:00:37;;;;;;;15.95;3.95;;;;;;;19.04;60.44;99257.69;3142364;28;20050;-71
2022/06/08 05:04:03;;;;;;;8.07;4.07;;;;;;;19.16;60.64;99252.31;3133519;28;20060;-70
2022/06/08 05:05:49;;;;;;;11.50;4.18;;;;;;;19.21;60.68;99252.72;3142759;28;20052;-71
2022/06/08 05:07:39;;;;;;;11.20;3.95;;;;;;;19.27;60.45;99241.63;3141587;28;20079;-70
2022/06/08 05:09:22;;;;;;;12.45;4.35;;;;;;;19.35;60.46;99243.59;3142139;28;20083;-68
2022/06/08 05:10:57;;;;;;;7.30;4.15;;;;;;;19.33;60.47;99239.25;3142162;28;20051;-71
2022/06/08 05:12:29;;;;;;;14.80;4.70;;;;;;;19.47;60.41;99251.22;3141057;28;20064;-70
2022/06/08 05:14:02;;;;;;;14.27;3.67;;;;;;;19.51;60.21;99247.31;3142380;28;20052;-70
2022/06/08 05:15:38;;;;;;;15.18;4.30;;;;;;;19.58;59.96;99250.25;3142540;28;20058;-69
2022/06/08 05:17:10;;;;;;;6.35;4.35;;;;;;;19.61;59.90;99249.09;3142288;28;20125;-68
2022/06/08 05:18:42;;;;;;;10.48;4.47;;;;;;;19.63;59.87;99239.25;3142463;28;20445;-68
2022/06/08 05:20:16;;;;;;;9.85;4.43;;;;;;;19.71;59.82;99242.06;3142430;28;20052;-68
2022/06/08 05:21:49;;;;;;;14.75;5.18;;;;;;;19.71;59.71;99234.13;3142291;28;20060;-67
2022/06/08 05:23:25;;;;;;;13.30;4.47;;;;;;;19.81;59.85;99247.31;3142258;28;20803;-69
2022/06/08 05:24:58;;;;;;;7.25;4.00;;;;;;;19.81;59.42;99248.16;3142199;28;20486;-69
2022/06/08 05:26:30;;;;;;;12.20;4.55;;;;;;;19.81;59.49;99237.56;3142185;28;20622;-68
2022/06/08 05:28:02;;;;;;;9.23;4.00;;;;;;;19.78;58.99;99236.03;3142040;28;20480;-69
2022/06/08 05:29:34;;;;;;;10.23;4.07;;;;;;;19.86;59.06;99245.09;3142354;28;20161;-67
2022/06/08 05:31:07;;;;;;;8.35;3.60;;;;;;;19.83;59.10;99246.19;3142071;28;20159;-67
2022/06/08 05:32:39;;;;;;;7.03;3.53;;;;;;;19.83;58.49;99242.72;3142255;28;20319;-67
2022/06/08 05:34:11;;;;;;;5.20;3.70;;;;;;;19.85;58.64;99243.44;3142062;28;20548;-68
2022/06/08 05:35:44;;;;;;;6.57;3.22;;;;;;;19.86;58.20;99245.91;3137544;28;20581;-69
2022/06/08 05:37:17;;;;;;;7.43;3.88;;;;;;;19.89;58.21;99250.91;3141928;28;20453;-70
2022/06/08 05:38:49;;;;;;;5.35;3.80;;;;;;;19.88;57.89;99243.97;3139029;28;20056;-69
2022/06/08 05:40:22;;;;;;;8.98;3.30;;;;;;;19.85;57.99;99243.44;3142076;28;20494;-68
2022/06/08 05:41:54;;;;;;;13.02;6.47;;;;;;;19.91;58.23;99251.63;3140531;28;20068;-68
2022/06/08 05:43:26;;;;;;;19.10;12.30;;;;;;;20.00;58.29;99252.56;3137091;28;20568;-66
2022/06/08 05:44:58;;;;;;;12.32;4.93;;;;;;;20.07;57.97;99253.66;3135143;28;20584;-68
2022/06/08 05:46:30;;;;;;;8.48;4.03;;;;;;;20.14;58.05;99249.47;3137188;28;20102;-70
2022/06/08 05:48:04;;;;;;;11.32;3.80;;;;;;;20.18;57.63;99248.19;3131305;28;20059;-69
2022/06/08 05:49:36;;;;;;;11.73;6.95;;;;;;;20.26;57.53;99251.91;3141654;28;20114;-68
2022/06/08 05:51:08;;;;;;;8.38;4.18;;;;;;;20.30;57.53;99245.38;3141943;28;20071;-68
2022/06/08 05:53:20;;;;;;;7.78;4.45;;;;;;;20.40;56.79;99248.81;3116301;28;20056;-67
2022/06/08 05:54:54;;;;;;;4.93;3.55;;;;;;;20.47;57.18;99247.28;3137294;28;20064;-73
2022/06/08 05:56:26;;;;;;;7.68;3.60;;;;;;;20.53;56.69;99241.44;3141323;28;20060;-75
2022/06/08 05:57:58;;;;;;;6.93;3.70;;;;;;;20.61;56.58;99246.78;3141683;28;20052;-69
2022/06/08 05:59:30;;;;;;;7.18;3.88;;;;;;;20.67;56.36;99246.22;3141398;28;20052;-71
2022/06/08 06:01:02;;;;;;;5.70;4.03;;;;;;;20.73;56.00;99247.44;3141423;28;20056;-71
2022/06/08 06:02:34;;;;;;;12.23;3.80;;;;;;;20.75;56.08;99242.00;3140678;28;20307;-71
2022/06/08 06:04:07;;;;;;;6.03;3.15;;;;;;;20.80;56.06;99230.00;3141045;28;20113;-70
2022/06/08 06:05:40;;;;;;;9.52;3.80;;;;;;;20.89;55.72;99228.28;3141513;28;20606;-69
2022/06/08 06:07:13;;;;;;;9.95;3.67;;;;;;;20.98;55.84;99227.38;3139002;28;20068;-69
2022/06/08 06:08:45;;;;;;;6.47;3.78;;;;;;;21.03;55.33;99225.13;3140705;28;20055;-69
2022/06/08 06:10:20;;;;;;;6.53;3.58;;;;;;;21.09;55.32;99221.03;3141204;28;20102;-69
2022/06/08 06:11:52;;;;;;;6.28;3.60;;;;;;;21.14;54.97;99224.88;3139894;28;20053;-67
2022/06/08 06:13:24;;;;;;;13.57;3.65;;;;;;;21.20;54.68;99223.44;3141232;28;20048;-66
2022/06/08 06:14:56;;;;;;;9.50;3.67;;;;;;;21.23;54.82;99215.19;3141742;28;20052;-68
2022/06/08 06:16:28;;;;;;;9.52;4.00;;;;;;;21.26;54.53;99220.19;3141796;28;20052;-70
2022/06/08 06:17:59;;;;;;;8.45;4.20;;;;;;;21.33;54.19;99217.78;3140986;28;20278;-71
2022/06/08 06:19:31;;;;;;;13.63;3.10;;;;;;;21.38;54.08;99207.56;3141738;28;20052;-71
2022/06/08 06:21:04;;;;;;;9.80;3.72;;;;;;;21.60;53.71;99218.69;3141699;28;20606;-71
2022/06/08 06:22:37;;;;;;;5.78;3.10;;;;;;;21.74;53.71;99220.75;3140600;28;20105;-67
2022/06/08 06:24:09;;;;;;;10.48;4.07;;;;;;;21.88;53.21;99217.53;3141444;28;20888;-68
2022/06/08 06:25:42;;;;;;;6.50;3.42;;;;;;;21.99;52.40;99232.38;3141252;28;20563;-69
2022/06/08 06:27:13;;;;;;;;;;;;;;;22.01;52.29;99228.56;3141715;28;20614;-67
2022/06/08 06:28:46;;;;;;;10.75;3.10;;;;;;;22.04;52.51;99222.97;3141441;28;19932;-68
2022/06/08 06:30:19;;;;;;;14.50;3.60;;;;;;;22.09;52.26;99224.31;3141092;28;20125;-66
2022/06/08 06:31:56;;;;;;;8.38;3.53;;;;;;;22.12;52.01;99231.94;3141397;28;20529;-66
2022/06/08 06:33:28;;;;;;;6.70;3.72;;;;;;;22.15;51.55;99229.81;3141474;28;20049;-68
2022/06/08 06:35:01;;;;;;;7.10;3.70;;;;;;;22.22;51.78;99232.72;3141101;28;20056;-67
2022/06/08 06:36:33;;;;;;;9.75;3.75;;;;;;;22.26;51.28;99236.69;3141680;28;20044;-67
2022/06/08 06:38:05;;;;;;;4.93;3.35;;;;;;;22.30;51.44;99235.38;3141197;28;20106;-69
2022/06/08 06:39:37;;;;;;;11.07;4.07;;;;;;;22.30;51.20;99234.56;3141405;28;20045;-68
2022/06/08 06:41:10;;;;;;;5.80;3.47;;;;;;;22.35;51.44;99224.31;3141247;28;20053;-67
2022/06/08 06:42:42;;;;;;;;;;;;;;;22.41;50.89;99227.16;3141786;28;20049;-67
2022/06/08 06:44:14;;;;;;;12.90;4.78;;;;;;;22.54;51.25;99225.88;3141487;28;20591;-69
2022/06/08 06:45:46;;;;;;;12.60;3.58;;;;;;;22.66;50.70;99219.31;3136942;28;20052;-70
2022/06/08 06:47:18;;;;;;;6.07;3.45;;;;;;;22.81;51.00;99223.00;3141151;28;20587;-68
2022/06/08 06:48:50;;;;;;;12.07;3.40;;;;;;;22.94;50.33;99222.50;3140274;28;20060;-67
2022/06/08 06:50:25;;;;;;;8.50;3.67;;;;;;;23.07;49.74;99232.69;3141438;28;20057;-66
2022/06/08 06:51:57;;;;;;;4.07;3.15;;;;;;;23.19;49.76;99219.94;3140056;28;20345;-67
2022/06/08 06:53:29;;;;;;;9.00;3.00;;;;;;;23.33;48.82;99212.13;3141015;28;20545;-68
2022/06/08 06:55:01;;;;;;;6.22;3.22;;;;;;;23.44;48.37;99216.31;3141238;28;20595;-66
2022/06/08 06:56:35;;;;;;;7.25;3.25;;;;;;;23.52;48.33;99215.47;3137302;28;20048;-66
2022/06/08 06:58:07;;;;;;;5.63;3.00;;;;;;;23.49;47.69;99216.63;3141591;28;20057;-68
2022/06/08 06:59:39;;;;;;;5.00;2.85;;;;;;;23.48;47.36;99219.44;3141421;28;20899;-67
2022/06/08 07:01:12;;;;;;;6.63;3.00;;;;;;;23.36;47.66;99214.47;3140952;28;20067;-67
2022/06/08 07:02:45;;;;;;;7.50;3.15;;;;;;;23.31;47.51;99213.31;3137363;28;20194;-67
2022/06/08 07:04:18;;;;;;;10.15;3.42;;;;;;;23.28;47.52;99203.00;3137069;28;20052;-69
2022/06/08 07:05:50;;;;;;;9.00;3.42;;;;;;;23.30;47.94;99204.50;3136110;28;20063;-69
2022/06/08 07:07:22;;;;;;;6.93;3.08;;;;;;;23.38;48.00;99201.84;3139631;28;20053;-72
2022/06/08 07:08:54;;;;;;;7.97;3.22;;;;;;;23.49;47.08;99203.34;3138423;28;20048;-70
2022/06/08 07:10:27;;;;;;;6.10;2.90;;;;;;;23.62;47.13;99197.53;3135528;28;20053;-67
2022/06/08 07:11:59;;;;;;;10.52;2.92;;;;;;;23.73;47.28;99197.22;3140895;28;20063;-72
2022/06/08 07:13:31;;;;;;;6.25;3.30;;;;;;;23.76;47.39;99180.91;3139187;28;20526;-69
2022/06/08 07:15:04;;;;;;;10.02;3.33;;;;;;;23.91;47.23;99194.34;3136503;28;20048;-69
2022/06/08 07:16:36;;;;;;;8.20;3.80;;;;;;;23.98;46.88;99186.50;3137809;28;20595;-72
2022/06/08 07:18:09;;;;;;;6.45;2.90;;;;;;;24.06;46.03;99182.00;3139294;28;20057;-72
2022/06/08 07:19:43;;;;;;;9.75;3.17;;;;;;;24.20;45.46;99190.28;3137525;28;20487;-67
2022/06/08 07:21:15;;;;;;;9.90;5.70;;;;;;;24.28;45.20;99190.22;3134639;28;20517;-66
2022/06/08 07:22:49;;;;;;;27.40;16.55;;;;;;;24.35;45.28;99185.91;3138859;28;20053;-65
2022/06/08 07:24:23;;;;;;;10.10;3.22;;;;;;;24.37;45.28;99183.06;3138786;28;20067;-68
2022/06/08 07:25:57;;;;;;;5.60;3.00;;;;;;;24.39;45.43;99189.88;3140143;28;20476;-69
2022/06/08 07:27:31;;;;;;;7.82;3.55;;;;;;;24.41;45.10;99190.53;3136384;28;20360;-69
2022/06/08 07:29:02;;;;;;;;;;;;;;;24.40;44.80;99193.34;3133233;28;20538;-66